Time;durP1;ratioP1;P1;durP2;ratioP2;P2;SDS_P1;SDS_P2;PMS_P1;PMS_P2;Temp;Humidity;BMP_temperature;BMP_pressure;BME280_temperature;BME280_humidity;BME280_pressure;Samples;Min_cycle;Max_cycle;Signal;HPM_P1;HPM_P2
2021/06/20 00:01:33;;;;;;;2.58;1.95;;;23.20;80.10;;;;;;6243423;23;20067;-90
2021/06/20 00:03:59;;;;;;;2.60;2.10;;;23.20;79.90;;;;;;6241500;23;19997;-90
2021/06/20 00:06:38;;;;;;;7.30;2.33;;;23.20;79.80;;;;;;6241624;23;20004;-90
2021/06/20 00:09:10;;;;;;;2.40;2.10;;;23.20;80.10;;;;;;6242393;23;20318;-90
2021/06/20 00:11:37;;;;;;;2.42;2.22;;;23.20;80.10;;;;;;6241788;22;20001;-90
2021/06/20 00:14:04;;;;;;;2.10;1.90;;;23.20;80.00;;;;;;6241709;23;20433;-89
2021/06/20 00:16:30;;;;;;;2.28;2.08;;;23.20;79.70;;;;;;6241819;23;20011;-89
2021/06/20 00:18:57;;;;;;;1.73;1.63;;;23.20;79.70;;;;;;6243304;22;20067;-90
2021/06/20 00:21:23;;;;;;;1.88;1.77;;;23.30;79.70;;;;;;6242304;22;20000;-90
2021/06/20 00:23:49;;;;;;;2.05;1.85;;;23.30;79.60;;;;;;6241512;23;20099;-90
2021/06/20 00:26:15;;;;;;;2.80;2.40;;;23.30;80.00;;;;;;6241909;23;20411;-90
2021/06/20 00:28:41;;;;;;;2.90;1.77;;;23.30;79.30;;;;;;6241534;23;20004;-90
2021/06/20 00:31:07;;;;;;;2.60;2.40;;;23.30;79.00;;;;;;6241433;23;20056;-90
2021/06/20 00:33:32;;;;;;;1.80;1.70;;;23.30;79.00;;;;;;6241619;23;20137;-89
2021/06/20 00:35:59;;;;;;;3.38;1.80;;;23.40;78.90;;;;;;6241572;23;20004;-90
2021/06/20 00:38:25;;;;;;;2.50;1.80;;;23.30;78.80;;;;;;6243139;22;19992;-89
2021/06/20 00:40:51;;;;;;;1.75;1.65;;;23.30;78.70;;;;;;6241072;23;20054;-90
2021/06/20 00:43:17;;;;;;;4.35;1.92;;;23.30;78.60;;;;;;6241160;23;20001;-90
2021/06/20 00:45:43;;;;;;;2.15;1.98;;;23.40;78.40;;;;;;6243818;22;19997;-89
2021/06/20 00:48:09;;;;;;;2.35;1.80;;;23.30;78.40;;;;;;6243290;23;20308;-90
2021/06/20 00:50:35;;;;;;;2.50;2.13;;;23.30;78.40;;;;;;6241698;22;20004;-90
2021/06/20 00:53:01;;;;;;;1.80;1.70;;;23.30;78.30;;;;;;6241812;23;20008;-90
2021/06/20 00:55:32;;;;;;;2.53;2.00;;;23.30;78.20;;;;;;6241561;23;20004;-90
2021/06/20 00:57:59;;;;;;;2.60;2.13;;;23.30;78.00;;;;;;6241722;23;20057;-90
2021/06/20 01:00:25;;;;;;;2.95;2.15;;;23.30;77.80;;;;;;6242975;22;19992;-90
2021/06/20 01:02:51;;;;;;;2.35;2.05;;;23.30;77.70;;;;;;6242867;23;20129;-90
2021/06/20 01:05:18;;;;;;;3.13;2.10;;;23.30;77.70;;;;;;6242837;23;19996;-89
2021/06/20 01:07:44;;;;;;;3.58;2.47;;;23.30;77.70;;;;;;6243305;22;20011;-90
2021/06/20 01:10:10;;;;;;;2.03;1.92;;;23.20;77.50;;;;;;6242752;23;20075;-90
2021/06/20 01:12:38;;;;;;;2.58;2.38;;;23.20;77.50;;;;;;6242991;22;19992;-90
2021/06/20 01:15:07;;;;;;;2.25;2.00;;;23.20;77.30;;;;;;6242871;23;20083;-90
2021/06/20 01:17:32;;;;;;;2.35;2.00;;;23.20;77.20;;;;;;6241713;23;20004;-90
2021/06/20 01:19:58;;;;;;;2.47;2.28;;;23.20;77.40;;;;;;6241939;22;20008;-90
2021/06/20 01:22:33;;;;;;;2.70;2.45;;;23.20;77.30;;;;;;6242868;23;20303;-90
2021/06/20 01:25:01;;;;;;;1.90;1.80;;;23.20;77.10;;;;;;6241937;23;20026;-90
2021/06/20 01:27:38;;;;;;;2.00;1.80;;;23.20;77.20;;;;;;6241294;23;20011;-90
2021/06/20 01:30:06;;;;;;;2.92;1.98;;;23.10;77.20;;;;;;6242242;23;20311;-90
2021/06/20 01:32:32;;;;;;;1.95;1.85;;;23.10;77.20;;;;;;6241847;23;19992;-89
2021/06/20 01:34:58;;;;;;;3.35;2.10;;;23.10;77.20;;;;;;6242545;23;20386;-90
2021/06/20 01:37:24;;;;;;;2.05;1.85;;;23.10;77.30;;;;;;6241490;23;20528;-90
2021/06/20 01:39:51;;;;;;;1.75;1.65;;;23.10;77.30;;;;;;6241118;22;20036;-90
2021/06/20 01:42:17;;;;;;;3.25;2.20;;;23.10;77.30;;;;;;6241252;23;20302;-90
2021/06/20 01:44:50;;;;;;;2.20;1.90;;;23.10;77.30;;;;;;6242826;22;20399;-90
2021/06/20 01:47:16;;;;;;;2.22;2.03;;;23.10;77.10;;;;;;6243032;22;20038;-90
2021/06/20 01:49:42;;;;;;;1.75;1.65;;;23.10;77.10;;;;;;6242875;22;20303;-90
2021/06/20 01:52:08;;;;;;;1.98;1.80;;;23.10;77.10;;;;;;6241118;23;20000;-90
2021/06/20 01:54:36;;;;;;;1.98;1.85;;;23.10;76.90;;;;;;6242785;23;20411;-90
2021/06/20 01:57:04;;;;;;;4.80;2.10;;;23.10;76.70;;;;;;6241247;23;20015;-90
2021/06/20 01:59:30;;;;;;;3.38;1.92;;;23.10;76.40;;;;;;6243091;23;20003;-90
2021/06/20 02:01:55;;;;;;;4.20;2.00;;;23.10;76.20;;;;;;6241028;23;20000;-90
2021/06/20 02:04:21;;;;;;;2.53;1.77;;;23.10;76.10;;;;;;6241245;23;20004;-90
2021/06/20 02:06:47;;;;;;;1.98;1.77;;;23.10;75.90;;;;;;6240679;23;20010;-90
2021/06/20 02:09:14;;;;;;;2.10;2.00;;;23.10;75.80;;;;;;6240952;23;20009;-89
2021/06/20 02:11:40;;;;;;;4.60;1.98;;;23.00;75.60;;;;;;6242242;23;20001;-90
2021/06/20 02:14:06;;;;;;;2.90;2.22;;;23.00;75.70;;;;;;6242405;23;20000;-90
2021/06/20 02:16:31;;;;;;;1.95;1.85;;;23.00;75.90;;;;;;6242253;22;20054;-89
2021/06/20 02:18:57;;;;;;;2.45;1.60;;;23.00;75.90;;;;;;6242347;23;20011;-90
2021/06/20 02:21:23;;;;;;;1.70;1.60;;;23.00;75.90;;;;;;6243842;23;19996;-90
2021/06/20 02:23:48;;;;;;;3.60;1.63;;;23.00;75.50;;;;;;6242132;23;19997;-90
2021/06/20 02:26:14;;;;;;;1.80;1.70;;;23.00;75.50;;;;;;6242390;23;20462;-90
2021/06/20 02:28:40;;;;;;;2.50;2.05;;;23.00;75.60;;;;;;6242247;23;20337;-90
2021/06/20 02:31:06;;;;;;;2.72;2.00;;;23.00;75.60;;;;;;6243691;23;19992;-90
2021/06/20 02:33:32;;;;;;;2.15;1.95;;;23.10;75.40;;;;;;6242347;22;20053;-90
2021/06/20 02:35:57;;;;;;;2.33;2.13;;;23.10;74.90;;;;;;6243385;23;20345;-90
2021/06/20 02:38:23;;;;;;;2.72;1.65;;;23.20;74.60;;;;;;6242285;23;20487;-90
2021/06/20 02:40:49;;;;;;;1.90;1.80;;;23.20;74.10;;;;;;6241850;23;20049;-90
2021/06/20 02:43:15;;;;;;;2.15;1.75;;;23.30;74.00;;;;;;6242260;23;20435;-90
2021/06/20 02:45:41;;;;;;;2.10;2.00;;;23.30;73.80;;;;;;6243822;22;20071;-90
2021/06/20 02:48:06;;;;;;;1.67;1.58;;;23.40;73.70;;;;;;6243741;23;20047;-90
2021/06/20 02:50:32;;;;;;;2.60;1.70;;;23.40;73.50;;;;;;6242459;23;20311;-90
2021/06/20 02:52:58;;;;;;;2.65;1.95;;;23.50;73.40;;;;;;6243344;23;19992;-90
2021/06/20 02:55:24;;;;;;;2.05;1.67;;;23.60;73.20;;;;;;6243729;22;19988;-90
2021/06/20 02:57:50;;;;;;;3.75;1.70;;;23.60;72.80;;;;;;6242304;22;20087;-90
2021/06/20 03:00:16;;;;;;;1.80;1.70;;;23.60;72.10;;;;;;6243690;23;20121;-90
2021/06/20 03:02:42;;;;;;;1.42;1.33;;;23.70;71.90;;;;;;6242154;23;20053;-90
2021/06/20 03:05:09;;;;;;;2.00;1.80;;;23.70;71.60;;;;;;6242063;22;20004;-90
2021/06/20 03:07:34;;;;;;;2.35;2.15;;;23.70;71.30;;;;;;6241982;23;20003;-90
2021/06/20 03:10:00;;;;;;;4.25;1.90;;;23.70;70.90;;;;;;6242734;22;20319;-90
2021/06/20 03:12:26;;;;;;;2.63;2.25;;;23.70;70.90;;;;;;6242391;23;20068;-90
2021/06/20 03:14:52;;;;;;;4.50;1.95;;;23.80;70.60;;;;;;6242268;23;20433;-90
2021/06/20 03:17:19;;;;;;;2.35;1.73;;;23.70;70.30;;;;;;6243318;23;19996;-90
2021/06/20 03:19:46;;;;;;;3.05;1.90;;;23.70;70.40;;;;;;6243502;22;19997;-91
2021/06/20 03:22:12;;;;;;;2.30;2.00;;;23.70;70.30;;;;;;6241214;23;20001;-90
2021/06/20 03:24:41;;;;;;;1.92;1.63;;;23.70;70.20;;;;;;6242542;23;20000;-90
2021/06/20 03:27:08;;;;;;;4.47;1.85;;;23.70;70.20;;;;;;6243988;23;20002;-90
2021/06/20 03:29:34;;;;;;;3.95;1.80;;;23.80;70.10;;;;;;6243432;23;20004;-90
2021/06/20 03:31:59;;;;;;;2.70;1.98;;;23.80;69.50;;;;;;6242092;23;20348;-90
2021/06/20 03:34:25;;;;;;;2.03;1.85;;;23.80;69.20;;;;;;6241970;22;20028;-90
2021/06/20 03:36:52;;;;;;;2.15;1.90;;;23.80;69.20;;;;;;6244061;22;20000;-90
2021/06/20 03:39:17;;;;;;;1.92;1.70;;;23.90;69.10;;;;;;6241863;23;20441;-90
2021/06/20 03:41:45;;;;;;;1.65;1.55;;;23.90;68.90;;;;;;6241899;23;20098;-90
2021/06/20 03:44:10;;;;;;;1.75;1.65;;;24.00;68.90;;;;;;6241995;22;19997;-90
2021/06/20 03:46:37;;;;;;;2.08;1.50;;;24.00;68.50;;;;;;6241976;22;20004;-90
2021/06/20 03:49:04;;;;;;;3.63;1.63;;;24.10;68.30;;;;;;6241601;23;20012;-90
2021/06/20 03:51:31;;;;;;;2.45;1.80;;;24.10;68.10;;;;;;6241403;23;20006;-90
2021/06/20 03:53:57;;;;;;;2.22;1.63;;;24.20;67.90;;;;;;6242384;23;20053;-90
2021/06/20 03:56:23;;;;;;;2.40;1.75;;;24.20;67.70;;;;;;6243117;23;19997;-90
2021/06/20 03:58:48;;;;;;;2.22;1.83;;;24.20;67.40;;;;;;6241573;23;20293;-90
2021/06/20 04:01:14;;;;;;;1.67;1.58;;;24.30;67.20;;;;;;6241797;22;19996;-90
2021/06/20 04:03:40;;;;;;;2.10;1.77;;;24.30;67.10;;;;;;6241934;22;20064;-90
2021/06/20 04:06:06;;;;;;;1.60;1.50;;;24.20;66.90;;;;;;6243138;23;20012;-90
2021/06/20 04:08:31;;;;;;;2.03;1.73;;;24.20;66.70;;;;;;6241733;22;20008;-90
2021/06/20 04:10:57;;;;;;;1.58;1.45;;;24.20;66.70;;;;;;6241067;23;20368;-90
2021/06/20 04:13:23;;;;;;;1.73;1.63;;;24.20;66.60;;;;;;6241574;23;20011;-90
2021/06/20 04:15:48;;;;;;;1.80;1.70;;;24.20;66.80;;;;;;6241338;22;20001;-89
2021/06/20 04:18:14;;;;;;;2.47;1.67;;;24.20;66.60;;;;;;6241227;23;20007;-90
2021/06/20 04:20:40;;;;;;;2.10;1.90;;;24.10;66.70;;;;;;6241467;23;20031;-90
2021/06/20 04:23:06;;;;;;;1.67;1.58;;;24.20;66.40;;;;;;6241902;22;20419;-90
2021/06/20 04:25:32;;;;;;;2.05;1.50;;;24.20;66.30;;;;;;6241736;23;20006;-90
2021/06/20 04:27:58;;;;;;;2.38;1.77;;;24.20;66.20;;;;;;6243035;22;19996;-90
2021/06/20 04:30:26;;;;;;;2.80;2.00;;;24.30;66.10;;;;;;6241839;22;20062;-90
2021/06/20 04:32:52;;;;;;;2.50;1.90;;;24.40;65.90;;;;;;6242916;22;20003;-90
2021/06/20 04:35:19;;;;;;;2.00;1.80;;;24.50;65.90;;;;;;6241494;22;20011;-90
2021/06/20 04:37:45;;;;;;;1.95;1.85;;;24.50;65.60;;;;;;6241345;23;20007;-90
2021/06/20 04:40:15;;;;;;;1.88;1.77;;;24.60;65.30;;;;;;6241258;23;20381;-90
2021/06/20 04:42:42;;;;;;;3.28;1.70;;;24.70;64.70;;;;;;6241849;23;20361;-90
2021/06/20 04:45:09;;;;;;;1.70;1.60;;;24.70;64.40;;;;;;6241709;22;20058;-90
2021/06/20 04:47:36;;;;;;;3.00;1.58;;;24.70;64.30;;;;;;6242976;22;19995;-90
2021/06/20 04:50:04;;;;;;;3.85;1.83;;;24.80;64.10;;;;;;6241687;23;20012;-90
2021/06/20 04:52:29;;;;;;;1.60;1.50;;;24.90;64.10;;;;;;6242903;23;20041;-90
2021/06/20 04:54:56;;;;;;;1.70;1.60;;;24.90;64.00;;;;;;6241283;23;20303;-90
2021/06/20 04:57:28;;;;;;;1.55;1.45;;;25.00;63.40;;;;;;6241391;23;20000;-90
2021/06/20 05:00:01;;;;;;;6.53;1.70;;;25.10;63.20;;;;;;6241625;23;20307;-90
2021/06/20 05:02:27;;;;;;;3.10;1.67;;;25.20;62.80;;;;;;6242426;23;20003;-90
2021/06/20 05:04:54;;;;;;;1.90;1.50;;;25.30;62.70;;;;;;6241656;23;19992;-90
2021/06/20 05:07:20;;;;;;;2.15;1.92;;;25.40;62.60;;;;;;6241556;23;20024;-90
2021/06/20 05:09:47;;;;;;;1.65;1.40;;;25.60;62.40;;;;;;6241542;23;20361;-91
2021/06/20 05:12:13;;;;;;;1.80;1.70;;;25.80;61.60;;;;;;6242838;23;20426;-90
2021/06/20 05:14:44;;;;;;;1.38;1.20;;;25.90;61.00;;;;;;6242947;22;19993;-90
2021/06/20 05:17:11;;;;;;;1.98;1.75;;;26.00;61.00;;;;;;6242120;23;20042;-90
2021/06/20 05:19:38;;;;;;;1.98;1.70;;;26.20;60.50;;;;;;6241414;23;20411;-91
2021/06/20 05:22:04;;;;;;;1.73;1.63;;;26.20;60.10;;;;;;6241704;23;20000;-90
2021/06/20 05:24:30;;;;;;;1.67;1.58;;;26.20;59.90;;;;;;6243065;22;20068;-90
2021/06/20 05:26:56;;;;;;;1.70;1.60;;;26.30;59.90;;;;;;6241636;23;19993;-90
2021/06/20 05:29:22;;;;;;;1.83;1.73;;;26.30;59.60;;;;;;6241279;22;20018;-90
2021/06/20 05:31:47;;;;;;;2.83;1.33;;;26.30;59.40;;;;;;6241549;23;20007;-90
2021/06/20 05:34:13;;;;;;;1.75;1.65;;;26.30;59.10;;;;;;6242844;22;19988;-90
2021/06/20 05:36:39;;;;;;;1.88;1.77;;;26.20;58.90;;;;;;6241387;23;20004;-91
2021/06/20 05:39:05;;;;;;;2.00;1.40;;;26.20;59.00;;;;;;6241654;22;20005;-91
2021/06/20 05:41:30;;;;;;;2.10;1.63;;;26.20;59.00;;;;;;6241089;23;20036;-90
2021/06/20 05:43:56;;;;;;;1.75;1.63;;;26.20;59.10;;;;;;6241081;23;20008;-90
2021/06/20 05:46:22;;;;;;;1.95;1.50;;;26.20;59.20;;;;;;6241134;23;20095;-90
2021/06/20 05:48:48;;;;;;;1.52;1.40;;;26.20;59.10;;;;;;6240903;22;19992;-90
2021/06/20 05:51:15;;;;;;;1.77;1.48;;;26.30;58.60;;;;;;6241175;23;20418;-90
2021/06/20 05:53:41;;;;;;;2.63;1.75;;;26.20;58.50;;;;;;6241410;23;20007;-90
2021/06/20 05:56:06;;;;;;;3.75;1.63;;;26.20;58.70;;;;;;6241165;23;20000;-90
2021/06/20 05:58:33;;;;;;;1.88;1.42;;;26.20;58.60;;;;;;6242823;23;20341;-89
2021/06/20 06:00:58;;;;;;;1.60;1.50;;;26.20;58.30;;;;;;6241320;23;20422;-89
2021/06/20 06:03:24;;;;;;;2.03;1.60;;;26.20;58.50;;;;;;6242867;23;19992;-89
2021/06/20 06:05:50;;;;;;;1.73;1.63;;;26.30;58.40;;;;;;6241518;23;20000;-90
2021/06/20 06:08:15;;;;;;;1.55;1.45;;;26.30;58.30;;;;;;6242865;22;20365;-90
2021/06/20 06:10:41;;;;;;;2.95;1.10;;;26.30;58.20;;;;;;6242588;22;20014;-90
2021/06/20 06:13:07;;;;;;;3.28;1.88;;;26.30;58.20;;;;;;6241014;22;20004;-90
2021/06/20 06:15:33;;;;;;;3.03;1.70;;;26.30;58.20;;;;;;6241860;23;20429;-90
2021/06/20 06:17:59;;;;;;;1.27;1.20;;;26.30;58.00;;;;;;6242419;23;20303;-90
2021/06/20 06:20:27;;;;;;;1.30;1.20;;;26.20;58.10;;;;;;6242794;22;19996;-90
2021/06/20 06:22:55;;;;;;;1.48;1.38;;;26.10;58.40;;;;;;6241340;23;19992;-90
2021/06/20 06:25:21;;;;;;;1.45;1.35;;;26.10;58.40;;;;;;6240855;23;20004;-91
2021/06/20 06:27:47;;;;;;;2.10;1.80;;;26.10;58.50;;;;;;6242198;23;20026;-90
2021/06/20 06:30:13;;;;;;;1.40;1.25;;;26.10;58.50;;;;;;6240440;23;20057;-90
2021/06/20 06:32:41;;;;;;;3.50;1.55;;;26.30;58.50;;;;;;6240820;23;20307;-90
2021/06/20 06:35:07;;;;;;;1.73;1.63;;;26.40;58.40;;;;;;6240648;23;20004;-91
2021/06/20 06:37:33;;;;;;;1.88;1.50;;;26.60;58.20;;;;;;6240799;23;19992;-91
2021/06/20 06:39:59;;;;;;;2.47;1.75;;;26.70;57.80;;;;;;6242362;22;20023;-91
2021/06/20 06:42:28;;;;;;;1.60;1.50;;;26.80;57.50;;;;;;6241330;23;20000;-90
2021/06/20 06:44:53;;;;;;;1.65;1.55;;;26.80;57.30;;;;;;6241405;23;20000;-89
2021/06/20 06:47:21;;;;;;;5.30;1.52;;;26.90;57.40;;;;;;6240364;23;20000;-91
2021/06/20 06:49:47;;;;;;;1.65;1.55;;;27.00;57.30;;;;;;6242084;22;20000;-90
2021/06/20 06:52:13;;;;;;;2.13;1.17;;;27.00;57.10;;;;;;6240560;23;19997;-90
2021/06/20 06:54:39;;;;;;;1.95;1.40;;;27.00;57.10;;;;;;6241997;23;20006;-91
2021/06/20 06:57:04;;;;;;;2.55;1.48;;;27.10;56.50;;;;;;6242500;23;20307;-91
2021/06/20 06:59:30;;;;;;;1.98;1.40;;;27.00;56.30;;;;;;6242641;23;20036;-91
2021/06/20 07:01:57;;;;;;;1.67;1.58;;;27.00;56.50;;;;;;6241954;22;20395;-90
2021/06/20 07:04:22;;;;;;;1.77;1.55;;;26.90;56.60;;;;;;6241779;23;20007;-91
2021/06/20 07:06:48;;;;;;;1.65;1.52;;;27.00;56.30;;;;;;6243622;22;19997;-90
2021/06/20 07:09:14;;;;;;;2.85;1.73;;;26.90;56.40;;;;;;6241961;23;20130;-90
2021/06/20 07:11:40;;;;;;;6.28;2.15;;;27.00;56.20;;;;;;6242036;23;20023;-90
2021/06/20 07:14:06;;;;;;;3.17;2.00;;;26.90;56.10;;;;;;6243725;22;20474;-90
2021/06/20 07:16:32;;;;;;;2.95;1.70;;;27.00;56.10;;;;;;6243619;23;20075;-90
2021/06/20 07:18:58;;;;;;;2.25;1.73;;;27.00;56.10;;;;;;6243782;23;20320;-90
2021/06/20 07:21:23;;;;;;;1.80;1.70;;;27.00;56.00;;;;;;6241859;23;20010;-91
2021/06/20 07:23:49;;;;;;;1.95;1.77;;;27.00;55.80;;;;;;6241881;22;20288;-90
2021/06/20 07:26:15;;;;;;;2.20;1.70;;;27.10;55.60;;;;;;6242607;22;20000;-90
2021/06/20 07:28:40;;;;;;;2.25;1.67;;;27.10;55.90;;;;;;6241842;23;20000;-91
2021/06/20 07:31:06;;;;;;;2.30;1.60;;;27.20;55.80;;;;;;6242060;22;20091;-92
2021/06/20 07:33:32;;;;;;;2.65;1.58;;;27.20;55.80;;;;;;6241839;22;20087;-90
2021/06/20 07:35:58;;;;;;;1.65;1.45;;;27.30;55.60;;;;;;6241318;22;20020;-90
2021/06/20 07:38:24;;;;;;;7.60;1.48;;;27.30;55.70;;;;;;6243345;23;19997;-90
2021/06/20 07:40:50;;;;;;;1.75;1.63;;;27.40;55.70;;;;;;6241825;23;20044;-91
2021/06/20 07:43:16;;;;;;;7.78;2.15;;;27.40;55.60;;;;;;6242573;23;20001;-91
2021/06/20 07:45:42;;;;;;;1.77;1.58;;;27.50;55.50;;;;;;6242167;22;20016;-90
2021/06/20 07:48:10;;;;;;;1.98;1.85;;;27.50;55.60;;;;;;6242607;22;20421;-91
2021/06/20 07:50:36;;;;;;;2.65;1.83;;;27.60;55.50;;;;;;6242447;22;20004;-91
2021/06/20 07:53:02;;;;;;;8.80;2.75;;;27.60;55.40;;;;;;6241668;23;20053;-91
2021/06/20 07:55:28;;;;;;;4.68;1.70;;;27.70;55.20;;;;;;6243581;23;19992;-91
2021/06/20 07:57:53;;;;;;;2.47;1.65;;;27.60;55.30;;;;;;6241854;23;20307;-90
2021/06/20 08:00:20;;;;;;;2.38;1.10;;;27.60;55.20;;;;;;6242179;22;20406;-91
2021/06/20 08:02:46;;;;;;;4.57;1.75;;;27.60;55.30;;;;;;6241966;23;20004;-90
2021/06/20 08:05:12;;;;;;;3.15;1.75;;;27.70;54.90;;;;;;6242234;23;20004;-91
2021/06/20 08:07:38;;;;;;;1.70;1.60;;;27.70;54.90;;;;;;6242795;22;20288;-91
2021/06/20 08:10:05;;;;;;;2.15;1.55;;;27.80;54.60;;;;;;6242701;23;20007;-90
2021/06/20 08:12:31;;;;;;;2.45;1.75;;;27.80;54.40;;;;;;6245394;23;20000;-90
2021/06/20 08:14:57;;;;;;;2.28;1.90;;;27.90;54.20;;;;;;6241956;23;20311;-90
2021/06/20 08:17:24;;;;;;;3.25;1.77;;;27.90;54.20;;;;;;6242230;22;20007;-90
2021/06/20 08:19:49;;;;;;;1.73;1.50;;;28.00;54.30;;;;;;6241545;23;20011;-91
2021/06/20 08:22:19;;;;;;;5.18;1.85;;;28.00;54.20;;;;;;6243254;23;20293;-90
2021/06/20 08:24:45;;;;;;;2.17;1.63;;;28.00;54.10;;;;;;6243195;22;20031;-90
2021/06/20 08:27:11;;;;;;;5.75;1.40;;;28.00;53.90;;;;;;6241736;23;20470;-90
2021/06/20 08:29:37;;;;;;;2.80;1.40;;;28.10;54.10;;;;;;6241644;23;20005;-89
2021/06/20 08:32:04;;;;;;;6.40;2.30;;;28.20;53.90;;;;;;6242288;22;19996;-90
2021/06/20 08:34:30;;;;;;;4.53;1.60;;;28.20;53.60;;;;;;6241436;23;20438;-90
2021/06/20 08:37:00;;;;;;;2.40;1.60;;;28.30;53.30;;;;;;6241539;22;19996;-90
2021/06/20 08:39:26;;;;;;;1.90;1.80;;;28.40;53.10;;;;;;6241684;23;20008;-90
2021/06/20 08:41:52;;;;;;;2.50;1.92;;;28.40;53.00;;;;;;6241109;23;20012;-91
2021/06/20 08:44:27;;;;;;;1.63;1.52;;;28.50;52.80;;;;;;6243259;22;20407;-89
2021/06/20 08:46:54;;;;;;;2.35;1.30;;;28.50;52.40;;;;;;6242955;22;20024;-90
2021/06/20 08:49:20;;;;;;;2.65;1.42;;;28.40;52.50;;;;;;6241267;23;20004;-90
2021/06/20 08:51:48;;;;;;;2.42;1.60;;;28.40;52.80;;;;;;6243208;23;19997;-90
2021/06/20 08:54:14;;;;;;;3.83;1.52;;;28.40;53.20;;;;;;6241623;23;20004;-90
2021/06/20 08:56:41;;;;;;;1.67;1.58;;;28.50;53.20;;;;;;6241537;23;20027;-90
2021/06/20 08:59:07;;;;;;;3.67;1.92;;;28.60;53.30;;;;;;6241475;22;20370;-90
2021/06/20 09:01:33;;;;;;;2.28;1.85;;;28.70;53.20;;;;;;6241455;23;19996;-90
2021/06/20 09:04:00;;;;;;;4.32;1.90;;;28.80;52.90;;;;;;6242938;22;19999;-90
2021/06/20 09:06:26;;;;;;;3.55;1.73;;;28.90;52.80;;;;;;6241547;23;20000;-90
2021/06/20 09:09:25;;;;;;;4.18;1.52;;;29.00;53.00;;;;;;6242803;22;20433;-90
2021/06/20 09:12:08;;;;;;;2.80;1.77;;;29.00;52.80;;;;;;6254279;22;20008;-95
2021/06/20 09:15:11;;;;;;;1.73;1.40;;;29.00;52.60;;;;;;6258982;23;20000;-96
2021/06/20 09:18:19;;;;;;;1.85;1.67;;;29.10;52.50;;;;;;6264357;22;20013;-96
2021/06/20 09:21:23;;;;;;;2.47;1.40;;;29.10;52.50;;;;;;6266140;22;19996;-96
2021/06/20 09:24:04;;;;;;;2.53;1.90;;;29.10;51.90;;;;;;6214768;23;20004;-96
2021/06/20 09:27:26;;;;;;;1.80;1.70;;;29.20;51.80;;;;;;6266831;22;20012;-96
2021/06/20 09:30:46;;;;;;;2.22;1.80;;;29.10;51.60;;;;;;6258775;22;20009;-95
2021/06/20 09:33:20;;;;;;;3.70;1.80;;;29.10;51.60;;;;;;6264044;23;20016;-94
2021/06/20 09:35:59;;;;;;;2.72;1.90;;;29.10;51.60;;;;;;6266382;22;20000;-96
2021/06/20 09:39:16;;;;;;;2.65;1.70;;;29.00;52.10;;;;;;6230214;22;20028;-96
2021/06/20 12:05:01;;;;;;;6.20;2.05;;;31.80;47.40;;;;;;6253939;22;20037;-96
2021/06/20 12:11:38;;;;;;;1.63;1.52;;;31.90;45.60;;;;;;6171536;23;20032;-96
2021/06/20 12:14:43;;;;;;;1.90;1.80;;;32.10;46.10;;;;;;6144936;23;20029;-96
2021/06/20 12:17:44;;;;;;;2.03;1.50;;;32.40;46.00;;;;;;6143220;23;20009;-95
2021/06/20 12:20:46;;;;;;;2.33;1.80;;;32.40;46.20;;;;;;6143911;23;19998;-96
2021/06/20 12:26:53;;;;;;;1.73;1.55;;;31.80;46.80;;;;;;6228768;22;20082;-95
2021/06/20 12:35:00;;;;;;;4.28;2.05;;;32.00;47.70;;;;;;6224367;22;20020;-95
2021/06/20 13:08:22;;;;;;;;;;;;;;;;;;;;;
2021/06/20 13:10:52;;;;;;;2.13;1.67;;;32.00;45.50;;;;;;6181217;23;20020;-94
2021/06/20 13:13:22;;;;;;;2.40;1.50;;;31.60;46.10;;;;;;6248091;23;19996;-94
2021/06/20 13:16:31;;;;;;;1.75;1.65;;;31.30;46.40;;;;;;6224394;22;20041;-95
2021/06/20 13:19:18;;;;;;;1.80;1.70;;;31.00;46.90;;;;;;6219014;22;20017;-96
2021/06/20 13:24:18;;;;;;;4.82;1.70;;;30.60;47.60;;;;;;6392239;22;20023;-96
2021/06/20 13:26:56;;;;;;;2.80;1.60;;;30.40;48.10;;;;;;6362776;22;20006;-96
2021/06/20 14:04:13;;;;;;;2.95;1.40;;;29.50;52.60;;;;;;6232329;22;20032;-96
2021/06/20 14:10:45;;;;;;;4.40;1.90;;;29.40;54.00;;;;;;6221940;22;20020;-96
2021/06/20 14:13:21;;;;;;;2.20;1.70;;;29.30;53.80;;;;;;6084957;23;20077;-96
2021/06/20 14:16:05;;;;;;;2.67;2.13;;;29.30;53.90;;;;;;6109840;23;19991;-96
2021/06/20 14:26:49;;;;;;;3.70;2.10;;;29.20;53.80;;;;;;6229711;22;20061;-95
2021/06/20 14:39:34;;;;;;;1.50;1.40;;;29.30;54.30;;;;;;6072300;23;20009;-96
2021/06/20 14:42:12;;;;;;;2.00;1.80;;;29.30;54.00;;;;;;6082780;23;19998;-96
2021/06/20 14:44:38;;;;;;;2.38;1.70;;;29.30;54.10;;;;;;6194793;23;20017;-96
2021/06/20 14:47:10;;;;;;;1.50;1.40;;;29.20;54.10;;;;;;6207977;23;20027;-95
2021/06/20 14:49:39;;;;;;;1.58;1.48;;;29.10;54.10;;;;;;6206804;22;20004;-95
2021/06/20 14:52:07;;;;;;;2.03;1.83;;;29.10;54.20;;;;;;6263827;22;20008;-96
2021/06/20 14:54:41;;;;;;;2.00;1.33;;;29.10;54.30;;;;;;6212699;22;20012;-96
2021/06/20 14:57:07;;;;;;;1.60;1.50;;;29.00;54.30;;;;;;6228144;23;20427;-96
2021/06/20 14:59:33;;;;;;;4.32;2.08;;;29.00;54.50;;;;;;6222095;22;20008;-96
2021/06/20 15:02:34;;;;;;;1.65;1.55;;;28.90;54.70;;;;;;6217177;23;20083;-94
2021/06/20 15:05:00;;;;;;;1.90;1.50;;;28.80;55.10;;;;;;6243137;22;20335;-95
2021/06/20 15:07:46;;;;;;;2.15;1.80;;;28.70;55.20;;;;;;6216037;22;20007;-96
2021/06/20 15:17:37;;;;;;;1.88;1.77;;;28.70;55.30;;;;;;6243252;23;20489;-95
2021/06/20 17:17:21;;;;;;;3.58;1.48;;;26.90;57.10;;;;;;6206030;23;20023;-93
2021/06/20 17:19:47;;;;;;;1.45;1.35;;;26.80;57.30;;;;;;6216088;22;20081;-93
2021/06/20 17:25:19;;;;;;;2.47;1.85;;;26.60;57.50;;;;;;6245071;23;20090;-93
2021/06/20 17:27:47;;;;;;;3.45;1.63;;;26.50;57.60;;;;;;6217532;22;20083;-93
2021/06/20 17:30:33;;;;;;;1.63;1.52;;;26.50;57.80;;;;;;6218045;22;20021;-93
2021/06/20 17:36:45;;;;;;;1.63;1.52;;;26.30;58.00;;;;;;6243201;23;20381;-93
2021/06/20 17:42:56;;;;;;;1.80;1.70;;;26.10;58.80;;;;;;6242858;23;20007;-93
2021/06/20 17:49:13;;;;;;;1.88;1.67;;;25.90;59.70;;;;;;6243012;23;20068;-93
2021/06/20 18:01:54;;;;;;;2.25;1.58;;;25.50;61.70;;;;;;6243430;22;20034;-93
2021/06/20 18:11:33;;;;;;;1.50;1.40;;;25.20;61.70;;;;;;6243707;22;20145;-93
2021/06/20 18:32:54;;;;;;;2.08;1.65;;;24.80;63.20;;;;;;6243352;23;20042;-93
2021/06/20 18:49:24;;;;;;;1.65;1.55;;;24.50;63.70;;;;;;6240278;23;20316;-94
2021/06/20 18:56:18;;;;;;;2.40;2.20;;;24.40;64.60;;;;;;6244795;22;20421;-93
2021/06/20 18:58:45;;;;;;;1.27;1.27;;;24.40;64.80;;;;;;6217751;22;20023;-94
2021/06/20 19:01:11;;;;;;;2.47;1.65;;;24.30;64.50;;;;;;6218660;22;20004;-94
2021/06/20 19:04:00;;;;;;;1.40;1.30;;;24.30;64.50;;;;;;6218151;22;20053;-93
2021/06/20 19:26:57;;;;;;;1.60;1.50;;;24.20;65.10;;;;;;6308601;22;20354;-94
2021/06/20 19:43:26;;;;;;;2.47;1.50;;;23.90;65.30;;;;;;6182209;23;20006;-94
2021/06/20 19:52:52;;;;;;;1.50;1.40;;;23.90;66.00;;;;;;6182431;23;20005;-94
2021/06/20 20:08:58;;;;;;;1.52;1.40;;;23.80;66.20;;;;;;6182975;23;20282;-94
2021/06/20 20:11:26;;;;;;;1.60;1.42;;;23.80;66.50;;;;;;6182453;22;20016;-94
2021/06/20 20:13:52;;;;;;;1.30;1.20;;;23.80;66.60;;;;;;6182198;22;20015;-94
2021/06/20 20:24:02;;;;;;;2.28;2.08;;;23.70;67.70;;;;;;6224856;22;20017;-94
2021/06/20 20:26:30;;;;;;;1.48;1.38;;;23.70;67.10;;;;;;6182054;23;20017;-93
2021/06/20 20:28:56;;;;;;;1.73;1.45;;;23.70;67.00;;;;;;6183154;22;20013;-94
2021/06/20 20:31:32;;;;;;;1.67;1.52;;;23.60;67.00;;;;;;6182888;22;20015;-94
2021/06/20 20:33:59;;;;;;;1.05;1.00;;;23.70;67.30;;;;;;6182172;22;20031;-93
2021/06/20 20:36:24;;;;;;;1.17;1.10;;;23.70;67.10;;;;;;6182830;22;20357;-93
2021/06/20 20:39:16;;;;;;;1.23;1.13;;;23.60;67.10;;;;;;6182897;22;20036;-94
2021/06/20 20:48:51;;;;;;;2.58;1.52;;;23.60;66.80;;;;;;6183800;22;20087;-93
